Time;durP1;ratioP1;P1;durP2;ratioP2;P2;SDS_P1;SDS_P2;PMS_P1;PMS_P2;Temp;Humidity;BMP_temperature;BMP_pressure;BME280_temperature;BME280_humidity;BME280_pressure;Samples;Min_cycle;Max_cycle;Signal;HPM_P1;HPM_P2
2022/06/03 00:02:24;;;;;;;45.67;31.40;;;;;;;;;;5056241;28;20082;-82
2022/06/03 00:04:59;;;;;;;43.65;30.00;;;;;;;;;;5057011;28;20024;-90
2022/06/03 00:07:28;;;;;;;39.38;31.70;;;;;;;;;;5057110;28;20020;-86
2022/06/03 00:09:55;;;;;;;43.70;33.53;;;;;;;;;;5044588;28;20440;-88
2022/06/03 00:12:42;;;;;;;41.72;29.45;;;;;;;;;;5045186;28;20032;-86
2022/06/03 00:15:32;;;;;;;44.78;34.65;;;;;;;;;;5035626;28;20028;-84
2022/06/03 00:17:58;;;;;;;44.63;30.33;;;;;;;;;;5025850;28;20032;-88
2022/06/03 00:20:24;;;;;;;44.40;30.30;;;;;;;;;;5044981;28;20028;-88
2022/06/03 00:23:09;;;;;;;43.42;32.45;;;;;;;;;;5060601;28;20009;-87
2022/06/03 00:25:53;;;;;;;41.75;31.73;;;;;;;;;;5076049;28;20012;-88
2022/06/03 00:28:38;;;;;;;48.85;31.50;;;;;;;;;;5038755;28;20035;-89
2022/06/03 00:31:18;;;;;;;41.88;31.67;;;;;;;;;;5037815;28;20025;-87
2022/06/03 00:34:07;;;;;;;41.70;30.88;;;;;;;;;;5036592;28;20032;-89
2022/06/03 00:36:45;;;;;;;40.88;30.85;;;;;;;;;;5036574;28;20083;-88
2022/06/03 00:39:31;;;;;;;51.70;32.67;;;;;;;;;;5053839;28;20009;-88
2022/06/03 00:41:57;;;;;;;39.67;32.28;;;;;;;;;;5036462;28;20035;-88
2022/06/03 00:44:30;;;;;;;43.75;33.03;;;;;;;;;;5036051;28;20063;-87
2022/06/03 00:46:59;;;;;;;41.65;29.98;;;;;;;;;;5036106;28;20044;-88
2022/06/03 00:49:41;;;;;;;37.95;28.60;;;;;;;;;;5036129;28;20021;-87
2022/06/03 00:52:25;;;;;;;40.50;32.28;;;;;;;;;;5043632;28;20044;-88
2022/06/03 00:54:52;;;;;;;41.50;31.92;;;;;;;;;;5073472;28;20024;-87
2022/06/03 00:57:36;;;;;;;45.35;31.75;;;;;;;;;;5074554;28;20048;-87
2022/06/03 01:00:08;;;;;;;46.63;31.65;;;;;;;;;;5074857;28;20169;-88
2022/06/03 01:02:50;;;;;;;41.95;29.35;;;;;;;;;;5090397;28;20027;-88
2022/06/03 01:05:31;;;;;;;43.42;29.33;;;;;;;;;;5084160;28;20024;-88
2022/06/03 01:08:05;;;;;;;66.15;30.35;;;;;;;;;;5092887;28;20661;-84
2022/06/03 01:10:34;;;;;;;32.33;28.45;;;;;;;;;;5093733;28;20533;-86
2022/06/03 01:13:00;;;;;;;37.90;30.67;;;;;;;;;;5075006;28;20514;-88
2022/06/03 01:15:34;;;;;;;43.22;31.95;;;;;;;;;;5071844;28;20059;-85
2022/06/03 01:18:00;;;;;;;40.30;28.40;;;;;;;;;;5070602;28;20047;-85
2022/06/03 01:20:32;;;;;;;46.00;33.25;;;;;;;;;;5072980;28;20464;-86
2022/06/03 01:23:04;;;;;;;38.85;28.48;;;;;;;;;;5081465;28;20020;-87
2022/06/03 01:25:50;;;;;;;37.95;29.90;;;;;;;;;;5077597;28;20555;-86
2022/06/03 01:28:16;;;;;;;36.08;29.27;;;;;;;;;;5086538;28;20032;-87
2022/06/03 01:30:51;;;;;;;45.60;32.03;;;;;;;;;;5088307;28;20130;-87
2022/06/03 01:33:33;;;;;;;42.40;30.52;;;;;;;;;;5085994;28;20024;-87
2022/06/03 01:36:02;;;;;;;39.75;30.35;;;;;;;;;;5079193;28;20028;-87
2022/06/03 01:38:36;;;;;;;37.25;29.55;;;;;;;;;;5077222;28;20045;-87
2022/06/03 01:41:20;;;;;;;43.83;31.13;;;;;;;;;;5083739;28;20119;-88
2022/06/03 01:44:05;;;;;;;45.45;32.67;;;;;;;;;;5081088;28;20047;-88
2022/06/03 01:46:51;;;;;;;45.05;32.05;;;;;;;;;;5077953;28;20050;-88
2022/06/03 01:49:30;;;;;;;43.72;30.42;;;;;;;;;;5067801;28;20032;-88
2022/06/03 01:52:22;;;;;;;41.72;29.98;;;;;;;;;;5077071;28;20082;-88
2022/06/03 01:54:54;;;;;;;37.33;30.15;;;;;;;;;;5038814;28;20033;-88
2022/06/03 01:57:39;;;;;;;43.47;30.73;;;;;;;;;;5049200;28;20040;-88
2022/06/03 02:00:24;;;;;;;36.92;30.55;;;;;;;;;;5046058;28;20032;-88
2022/06/03 02:02:53;;;;;;;53.50;38.30;;;;;;;;;;5054216;28;20035;-87
2022/06/03 02:05:25;;;;;;;53.13;38.28;;;;;;;;;;5045162;28;20100;-87
2022/06/03 02:07:57;;;;;;;58.17;40.70;;;;;;;;;;5069360;28;20008;-84
2022/06/03 02:10:39;;;;;;;57.42;37.05;;;;;;;;;;5044126;28;20021;-87
2022/06/03 02:13:23;;;;;;;60.35;41.85;;;;;;;;;;5039982;28;20035;-88
2022/06/03 02:16:08;;;;;;;47.30;36.33;;;;;;;;;;5038114;28;20017;-87
2022/06/03 02:18:37;;;;;;;50.15;37.63;;;;;;;;;;5044789;28;20643;-88
2022/06/03 02:21:16;;;;;;;53.65;40.20;;;;;;;;;;5039804;28;20112;-87
2022/06/03 02:24:00;;;;;;;50.10;35.60;;;;;;;;;;5042226;28;20499;-87
2022/06/03 02:26:45;;;;;;;53.67;38.38;;;;;;;;;;5048441;28;20407;-87
2022/06/03 02:32:36;;;;;;;56.58;41.10;;;;;;;;;;5058460;28;20027;-91
2022/06/03 02:35:05;;;;;;;48.47;36.95;;;;;;;;;;5044105;28;20033;-89
2022/06/03 02:37:40;;;;;;;58.92;40.78;;;;;;;;;;5069595;28;20070;-87
2022/06/03 02:40:21;;;;;;;53.40;39.97;;;;;;;;;;5040618;28;20025;-90
2022/06/03 02:43:01;;;;;;;54.80;41.67;;;;;;;;;;5042384;28;20016;-88
2022/06/03 02:45:57;;;;;;;54.65;39.97;;;;;;;;;;5041951;28;20028;-89
2022/06/03 02:48:38;;;;;;;56.10;40.60;;;;;;;;;;5040916;28;20039;-87
2022/06/03 02:51:17;;;;;;;51.97;38.60;;;;;;;;;;5036555;28;20025;-88
2022/06/03 02:53:49;;;;;;;56.22;41.40;;;;;;;;;;5082033;28;20122;-87
2022/06/03 02:56:18;;;;;;;52.63;38.63;;;;;;;;;;5086221;28;20075;-89
2022/06/03 02:58:53;;;;;;;50.38;39.13;;;;;;;;;;5096937;28;20472;-94
2022/06/03 03:01:31;;;;;;;46.20;39.63;;;;;;;;;;5080533;28;20170;-89
2022/06/03 03:04:21;;;;;;;55.13;41.90;;;;;;;;;;5071271;28;20027;-90
2022/06/03 03:07:04;;;;;;;48.90;40.03;;;;;;;;;;5025119;28;20384;-90
2022/06/03 03:09:45;;;;;;;56.08;40.67;;;;;;;;;;5071364;28;20060;-90
2022/06/03 03:12:11;;;;;;;53.85;40.42;;;;;;;;;;5070923;28;20077;-90
2022/06/03 03:14:55;;;;;;;54.90;41.83;;;;;;;;;;5079443;28;20426;-89
2022/06/03 03:17:42;;;;;;;61.25;43.70;;;;;;;;;;5090922;28;20024;-90
2022/06/03 03:20:29;;;;;;;56.38;41.50;;;;;;;;;;5091764;28;20024;-90
2022/06/03 03:23:07;;;;;;;60.78;44.08;;;;;;;;;;5090782;28;20024;-91
2022/06/03 03:25:36;;;;;;;57.10;44.55;;;;;;;;;;5091874;28;20074;-90
2022/06/03 03:28:16;;;;;;;51.43;41.40;;;;;;;;;;5092038;28;20028;-90
2022/06/03 03:30:49;;;;;;;53.15;41.35;;;;;;;;;;5080340;28;20034;-86
2022/06/03 03:33:33;;;;;;;58.72;42.78;;;;;;;;;;5081944;28;20108;-84
2022/06/03 03:36:19;;;;;;;60.72;43.42;;;;;;;;;;5081347;28;20040;-84
2022/06/03 03:38:55;;;;;;;56.97;43.45;;;;;;;;;;5072999;28;20110;-87
2022/06/03 03:41:41;;;;;;;54.67;42.80;;;;;;;;;;5074208;28;20005;-86
2022/06/03 03:44:36;;;;;;;55.42;40.65;;;;;;;;;;5074385;28;20070;-89
2022/06/03 03:47:14;;;;;;;58.45;43.50;;;;;;;;;;5074252;28;20474;-85
2022/06/03 03:49:43;;;;;;;54.75;41.75;;;;;;;;;;5093700;28;20041;-84
2022/06/03 03:52:12;;;;;;;57.10;42.53;;;;;;;;;;5086205;28;20047;-84
2022/06/03 03:54:59;;;;;;;61.95;44.35;;;;;;;;;;5073076;28;20084;-83
2022/06/03 03:57:55;;;;;;;63.47;45.42;;;;;;;;;;5071291;28;20028;-83
2022/06/03 04:00:39;;;;;;;63.83;45.58;;;;;;;;;;5073661;28;20012;-83
2022/06/03 04:03:36;;;;;;;59.13;44.63;;;;;;;;;;5054706;28;20510;-84
2022/06/03 04:06:20;;;;;;;64.50;47.38;;;;;;;;;;5055038;28;20032;-83
2022/06/03 04:08:49;;;;;;;60.00;43.75;;;;;;;;;;5052635;28;20021;-84
2022/06/03 04:11:24;;;;;;;60.97;44.33;;;;;;;;;;5066235;28;20020;-83
2022/06/03 04:14:02;;;;;;;63.22;44.95;;;;;;;;;;5072197;28;20033;-87
2022/06/03 04:16:39;;;;;;;61.97;45.03;;;;;;;;;;5054256;28;20020;-90
2022/06/03 04:19:11;;;;;;;56.65;45.53;;;;;;;;;;5061489;28;20032;-89
2022/06/03 04:21:55;;;;;;;62.22;45.28;;;;;;;;;;5079995;28;20115;-90
2022/06/03 04:24:25;;;;;;;64.25;46.63;;;;;;;;;;5080672;28;20472;-91
2022/06/03 04:26:51;;;;;;;63.60;45.23;;;;;;;;;;5080027;28;20095;-90
2022/06/03 04:29:35;;;;;;;64.60;46.78;;;;;;;;;;5064351;28;20042;-91
2022/06/03 04:32:03;;;;;;;65.80;44.95;;;;;;;;;;5080356;28;20062;-90
2022/06/03 04:34:50;;;;;;;67.72;46.35;;;;;;;;;;5059463;28;20057;-90
2022/06/03 04:37:31;;;;;;;67.10;45.75;;;;;;;;;;5044314;28;20469;-89
2022/06/03 04:40:15;;;;;;;64.28;46.13;;;;;;;;;;5041225;28;20017;-90
2022/06/03 04:43:00;;;;;;;64.57;46.97;;;;;;;;;;5039116;28;20468;-91
2022/06/03 04:45:44;;;;;;;61.25;44.55;;;;;;;;;;5047816;28;20025;-90
2022/06/03 04:48:30;;;;;;;63.10;45.28;;;;;;;;;;5058385;28;20016;-90
2022/06/03 04:51:30;;;;;;;60.25;43.15;;;;;;;;;;5053739;28;20052;-90
2022/06/03 04:54:22;;;;;;;58.33;44.92;;;;;;;;;;5058101;28;20072;-90
2022/06/03 04:57:07;;;;;;;65.00;46.42;;;;;;;;;;5058638;28;20016;-90
2022/06/03 04:59:36;;;;;;;77.05;52.45;;;;;;;;;;5058319;28;20084;-89
2022/06/03 05:02:03;;;;;;;76.95;54.45;;;;;;;;;;5058261;28;20020;-90
2022/06/03 05:04:38;;;;;;;70.88;54.38;;;;;;;;;;5057664;28;20020;-89
2022/06/03 05:07:10;;;;;;;72.75;48.13;;;;;;;;;;5057533;28;20500;-91
2022/06/03 05:10:03;;;;;;;70.50;49.35;;;;;;;;;;5064572;28;20048;-91
2022/06/03 05:12:51;;;;;;;76.07;55.72;;;;;;;;;;5054573;28;20037;-90
2022/06/03 05:15:35;;;;;;;72.30;50.22;;;;;;;;;;5054328;28;20932;-89
2022/06/03 05:18:01;;;;;;;78.05;54.17;;;;;;;;;;5038283;28;20503;-91
2022/06/03 05:20:27;;;;;;;78.53;52.05;;;;;;;;;;5042769;28;20058;-90
2022/06/03 05:23:14;;;;;;;69.60;52.28;;;;;;;;;;5057521;28;20512;-90
2022/06/03 05:25:59;;;;;;;66.70;50.15;;;;;;;;;;5057984;28;20027;-90
2022/06/03 05:28:44;;;;;;;63.80;49.42;;;;;;;;;;5057899;28;20024;-89
2022/06/03 05:31:28;;;;;;;69.22;49.22;;;;;;;;;;5052102;28;20056;-90
2022/06/03 05:34:07;;;;;;;69.35;50.40;;;;;;;;;;5060466;28;20036;-89
2022/06/03 05:36:51;;;;;;;74.95;52.30;;;;;;;;;;5060771;28;20055;-89
2022/06/03 05:39:18;;;;;;;72.95;54.83;;;;;;;;;;5065627;28;20033;-87
2022/06/03 05:44:50;;;;;;;84.93;58.25;;;;;;;;;;5055905;28;20392;-88
2022/06/03 05:47:20;;;;;;;87.18;60.40;;;;;;;;;;5050977;28;20027;-90
2022/06/03 05:49:52;;;;;;;78.63;58.50;;;;;;;;;;5056345;28;20542;-92
2022/06/03 05:52:29;;;;;;;78.78;58.08;;;;;;;;;;5064885;28;20041;-89
2022/06/03 05:55:33;;;;;;;87.00;58.45;;;;;;;;;;5084707;28;20127;-84
2022/06/03 05:58:15;;;;;;;89.72;56.72;;;;;;;;;;4995294;28;20026;-91
2022/06/03 06:00:59;;;;;;;80.35;56.95;;;;;;;;;;5009582;28;20486;-89
2022/06/03 06:03:28;;;;;;;78.00;55.13;;;;;;;;;;5051894;28;20055;-90
2022/06/03 06:05:57;;;;;;;88.22;57.10;;;;;;;;;;5074940;28;20043;-89
2022/06/03 06:08:30;;;;;;;78.83;52.73;;;;;;;;;;5087342;28;20496;-88
2022/06/03 06:11:15;;;;;;;67.03;50.58;;;;;;;;;;5093462;28;20480;-88
2022/06/03 06:14:00;;;;;;;65.75;49.83;;;;;;;;;;5096552;28;20512;-89
2022/06/03 06:16:46;;;;;;;72.93;50.40;;;;;;;;;;5089104;28;20031;-88
2022/06/03 06:19:35;;;;;;;69.60;48.50;;;;;;;;;;5071834;28;20024;-89
2022/06/03 06:22:21;;;;;;;65.80;48.92;;;;;;;;;;5072328;28;20469;-89
2022/06/03 06:24:54;;;;;;;78.78;52.60;;;;;;;;;;5073637;28;20545;-88
2022/06/03 06:27:33;;;;;;;67.28;48.45;;;;;;;;;;5072773;28;20021;-89
2022/06/03 06:30:02;;;;;;;74.85;50.35;;;;;;;;;;5076733;28;20536;-89
2022/06/03 06:32:31;;;;;;;68.20;50.25;;;;;;;;;;5074328;28;20029;-89
2022/06/03 06:35:13;;;;;;;67.72;49.75;;;;;;;;;;5076187;28;20098;-89
2022/06/03 06:37:48;;;;;;;64.18;47.15;;;;;;;;;;5090228;28;20073;-90
2022/06/03 06:40:17;;;;;;;61.63;45.78;;;;;;;;;;5072932;28;20427;-89
2022/06/03 06:42:43;;;;;;;67.72;50.53;;;;;;;;;;5072046;28;20024;-90
2022/06/03 06:45:22;;;;;;;61.25;47.38;;;;;;;;;;5072363;28;20020;-90
2022/06/03 06:48:07;;;;;;;62.25;45.97;;;;;;;;;;5072759;28;20529;-89
2022/06/03 06:50:38;;;;;;;68.22;46.70;;;;;;;;;;5075842;28;20025;-89
2022/06/03 06:53:10;;;;;;;57.03;41.10;;;;;;;;;;5072641;28;20048;-88
2022/06/03 06:55:41;;;;;;;62.58;41.67;;;;;;;;;;5071925;28;20098;-90
2022/06/03 06:58:31;;;;;;;60.97;44.97;;;;;;;;;;5081674;28;20453;-91
2022/06/03 07:00:58;;;;;;;;;;;;;;;;;;5070413;28;20389;-89
2022/06/03 07:03:42;;;;;;;57.03;40.00;;;;;;;;;;5078669;28;19908;-88
2022/06/03 07:06:19;;;;;;;52.03;36.65;;;;;;;;;;5088644;28;20021;-90
2022/06/03 07:09:03;;;;;;;53.80;37.47;;;;;;;;;;5082155;28;20133;-90
2022/06/03 07:11:40;;;;;;;47.50;34.45;;;;;;;;;;5085318;28;20027;-87
2022/06/03 07:14:07;;;;;;;51.67;35.83;;;;;;;;;;5089491;28;20032;-88
2022/06/03 07:19:47;;;;;;;62.10;33.45;;;;;;;;;;5082142;28;20019;-87
2022/06/03 07:22:46;;;;;;;53.97;35.05;;;;;;;;;;5077352;28;20035;-88
2022/06/03 07:25:12;;;;;;;47.83;32.25;;;;;;;;;;5060173;28;20088;-88
2022/06/03 07:27:51;;;;;;;44.85;30.65;;;;;;;;;;5087522;28;20066;-86
2022/06/03 07:30:22;;;;;;;42.38;28.85;;;;;;;;;;5088981;28;20039;-88
2022/06/03 07:33:01;;;;;;;46.85;30.10;;;;;;;;;;5071190;28;20023;-89
2022/06/03 07:35:27;;;;;;;43.80;29.13;;;;;;;;;;5082977;28;20067;-89
2022/06/03 07:38:06;;;;;;;37.03;26.55;;;;;;;;;;5093856;28;20510;-85
2022/06/03 07:40:33;;;;;;;45.13;26.10;;;;;;;;;;5085420;28;20028;-88
2022/06/03 07:43:09;;;;;;;39.92;26.13;;;;;;;;;;5078850;28;20019;-84
2022/06/03 07:45:38;;;;;;;35.92;23.70;;;;;;;;;;5075444;28;20032;-89
2022/06/03 07:48:06;;;;;;;44.28;27.75;;;;;;;;;;5077188;28;20153;-87
2022/06/03 07:50:36;;;;;;;39.78;24.00;;;;;;;;;;5090087;28;20028;-85
2022/06/03 07:53:22;;;;;;;37.40;22.33;;;;;;;;;;5071894;28;20056;-85
2022/06/03 07:55:53;;;;;;;29.08;19.90;;;;;;;;;;5052620;28;20032;-87
2022/06/03 07:58:20;;;;;;;25.25;18.55;;;;;;;;;;5038981;28;20120;-83
2022/06/03 08:00:47;;;;;;;20.75;16.42;;;;;;;;;;5064405;28;20028;-84
2022/06/03 08:03:15;;;;;;;21.08;14.98;;;;;;;;;;5062829;28;20020;-83
2022/06/03 08:05:46;;;;;;;22.38;15.30;;;;;;;;;;5057338;28;20511;-83
2022/06/03 08:11:00;;;;;;;18.02;12.60;;;;;;;;;;5063963;28;20024;-84
2022/06/03 08:13:28;;;;;;;15.57;10.35;;;;;;;;;;5064043;28;20078;-84
2022/06/03 08:15:54;;;;;;;12.30;7.82;;;;;;;;;;5065259;28;20349;-86
2022/06/03 08:18:21;;;;;;;13.27;8.60;;;;;;;;;;5046064;28;20024;-88
2022/06/03 08:20:51;;;;;;;8.50;7.40;;;;;;;;;;5058812;28;20017;-86
2022/06/03 08:23:18;;;;;;;13.73;7.97;;;;;;;;;;5057226;28;20024;-85
2022/06/03 08:25:46;;;;;;;11.57;8.70;;;;;;;;;;5044287;28;20146;-86
2022/06/03 08:28:15;;;;;;;7.60;6.00;;;;;;;;;;5051565;28;20043;-85
2022/06/03 08:30:44;;;;;;;9.15;5.72;;;;;;;;;;5047592;28;20025;-84
2022/06/03 08:33:12;;;;;;;11.95;5.43;;;;;;;;;;5053794;28;20025;-85
2022/06/03 08:35:42;;;;;;;14.27;5.78;;;;;;;;;;5063001;28;20024;-86
2022/06/03 08:38:13;;;;;;;7.38;4.32;;;;;;;;;;5067359;28;20020;-86
2022/06/03 08:40:55;;;;;;;5.63;4.38;;;;;;;;;;5060939;28;20116;-86
2022/06/03 08:43:29;;;;;;;6.47;3.97;;;;;;;;;;5062004;28;20552;-85
2022/06/03 08:45:56;;;;;;;5.35;3.60;;;;;;;;;;5038328;28;20469;-85
2022/06/03 08:48:26;;;;;;;6.50;4.60;;;;;;;;;;5062519;28;20009;-86
2022/06/03 08:50:58;;;;;;;4.55;3.85;;;;;;;;;;5045546;28;20023;-86
2022/06/03 08:53:29;;;;;;;4.38;3.78;;;;;;;;;;5071689;28;20082;-84
2022/06/03 08:56:07;;;;;;;5.78;3.92;;;;;;;;;;5087930;28;20027;-87
2022/06/03 08:58:44;;;;;;;4.35;3.47;;;;;;;;;;5083447;28;20020;-85
2022/06/03 09:01:13;;;;;;;5.80;3.92;;;;;;;;;;5078543;28;20063;-84
2022/06/03 09:03:54;;;;;;;3.75;2.97;;;;;;;;;;5075800;28;20701;-86
2022/06/03 09:06:24;;;;;;;4.70;2.70;;;;;;;;;;5084461;28;20228;-85
2022/06/03 09:08:57;;;;;;;3.90;2.97;;;;;;;;;;5083231;28;20031;-86
2022/06/03 09:11:43;;;;;;;3.72;3.33;;;;;;;;;;5080758;28;20020;-86
2022/06/03 09:14:12;;;;;;;2.90;2.60;;;;;;;;;;5043798;28;20500;-86
2022/06/03 09:16:40;;;;;;;4.95;3.17;;;;;;;;;;5087493;28;20028;-85
2022/06/03 09:19:10;;;;;;;8.32;3.42;;;;;;;;;;5074339;28;20119;-86
2022/06/03 09:21:41;;;;;;;4.22;2.88;;;;;;;;;;5082042;28;20016;-85
2022/06/03 09:24:10;;;;;;;7.05;3.20;;;;;;;;;;5077644;28;20098;-86
2022/06/03 09:26:42;;;;;;;4.18;3.50;;;;;;;;;;5078067;28;20043;-85
2022/06/03 09:29:12;;;;;;;2.85;2.58;;;;;;;;;;5090071;28;20510;-85
2022/06/03 09:31:42;;;;;;;2.95;2.10;;;;;;;;;;5077861;28;20066;-85
2022/06/03 09:34:08;;;;;;;2.28;2.08;;;;;;;;;;5086577;28;20060;-86
2022/06/03 09:36:35;;;;;;;6.43;2.47;;;;;;;;;;5079777;28;20028;-86
2022/06/03 09:39:10;;;;;;;4.28;2.75;;;;;;;;;;5084212;28;20015;-84
2022/06/03 09:41:44;;;;;;;3.13;2.63;;;;;;;;;;5080207;28;20029;-85
2022/06/03 09:44:13;;;;;;;2.58;2.00;;;;;;;;;;5090840;28;20008;-86
2022/06/03 09:46:40;;;;;;;4.00;3.10;;;;;;;;;;5086499;28;20052;-85
2022/06/03 09:49:07;;;;;;;3.63;2.55;;;;;;;;;;5086257;28;20472;-86
2022/06/03 09:51:56;;;;;;;3.58;3.28;;;;;;;;;;5088299;28;20495;-86
2022/06/03 09:54:24;;;;;;;4.78;3.03;;;;;;;;;;5090501;28;20028;-87
2022/06/03 09:56:52;;;;;;;5.05;2.25;;;;;;;;;;5087112;28;20024;-84
2022/06/03 09:59:20;;;;;;;2.55;1.95;;;;;;;;;;5090274;28;20496;-85
2022/06/03 10:01:47;;;;;;;4.38;2.35;;;;;;;;;;5087191;28;20024;-86
2022/06/03 10:04:14;;;;;;;2.50;2.30;;;;;;;;;;5091426;28;20012;-84
2022/06/03 10:06:43;;;;;;;2.13;1.83;;;;;;;;;;5080159;28;20031;-84
2022/06/03 10:15:37;;;;;;;2.40;2.13;;;;;;;;;;5084063;28;20510;-86
2022/06/03 10:17:33;;;;;;;2.95;2.20;;;;;;;;;;5077439;28;20052;-86
2022/06/03 10:19:59;;;;;;;2.40;2.20;;;;;;;;;;5080417;28;20024;-86
2022/06/03 10:22:26;;;;;;;2.58;2.22;;;;;;;;;;5076429;28;20020;-87
2022/06/03 10:24:55;;;;;;;4.00;2.90;;;;;;;;;;5079127;28;20430;-86
2022/06/03 10:27:21;;;;;;;2.28;2.13;;;;;;;;;;5093915;28;20031;-87
2022/06/03 10:29:49;;;;;;;4.05;2.65;;;;;;;;;;5071505;28;20028;-86
2022/06/03 10:32:17;;;;;;;3.83;3.05;;;;;;;;;;5086344;28;20012;-87
2022/06/03 10:34:44;;;;;;;3.53;3.10;;;;;;;;;;5078264;28;20036;-87
2022/06/03 10:37:14;;;;;;;3.78;3.35;;;;;;;;;;5087808;28;20484;-87
2022/06/03 10:39:43;;;;;;;3.40;3.00;;;;;;;;;;5076416;28;20020;-87
2022/06/03 10:42:13;;;;;;;2.60;2.38;;;;;;;;;;5089783;28;20058;-86
2022/06/03 10:44:43;;;;;;;3.05;2.28;;;;;;;;;;5077852;28;20495;-87
2022/06/03 10:47:28;;;;;;;7.85;2.42;;;;;;;;;;5076843;28;20032;-86
2022/06/03 10:49:59;;;;;;;7.95;3.38;;;;;;;;;;5087369;28;20027;-90
2022/06/03 11:01:20;;;;;;;3.30;3.00;;;;;;;;;;5107086;28;20030;-87
2022/06/03 11:03:49;;;;;;;4.78;3.05;;;;;;;;;;5095784;28;20023;-88
2022/06/03 11:06:17;;;;;;;6.00;2.90;;;;;;;;;;5100686;28;20051;-87
2022/06/03 11:08:50;;;;;;;6.13;3.72;;;;;;;;;;5091804;28;20571;-86
2022/06/03 11:11:30;;;;;;;3.75;3.20;;;;;;;;;;5092875;28;20053;-85
2022/06/03 11:13:56;;;;;;;4.00;2.33;;;;;;;;;;5103533;28;20035;-87
2022/06/03 11:16:23;;;;;;;3.83;3.20;;;;;;;;;;5093727;28;20027;-88
2022/06/03 11:18:50;;;;;;;3.15;2.65;;;;;;;;;;5094414;28;20020;-86
2022/06/03 11:21:29;;;;;;;3.30;2.90;;;;;;;;;;5106614;28;20083;-87
2022/06/03 11:24:00;;;;;;;5.68;4.18;;;;;;;;;;5105480;28;20024;-86
2022/06/03 11:26:33;;;;;;;5.72;3.88;;;;;;;;;;5081817;28;20051;-86
2022/06/03 11:29:03;;;;;;;8.73;3.95;;;;;;;;;;5086858;28;20404;-85
2022/06/03 11:31:32;;;;;;;5.35;3.88;;;;;;;;;;5083518;28;20033;-85
2022/06/03 11:34:04;;;;;;;4.40;3.95;;;;;;;;;;5081271;28;20032;-84
2022/06/03 11:36:30;;;;;;;4.20;3.80;;;;;;;;;;5079642;28;20020;-84
2022/06/03 11:39:00;;;;;;;6.25;3.65;;;;;;;;;;5085427;28;20118;-84
2022/06/03 11:41:31;;;;;;;4.35;3.72;;;;;;;;;;5082933;28;20032;-84
2022/06/03 11:44:04;;;;;;;4.00;3.67;;;;;;;;;;5088895;28;20523;-85
2022/06/03 11:46:37;;;;;;;5.20;3.55;;;;;;;;;;5085150;28;20028;-84
2022/06/03 11:49:07;;;;;;;4.95;4.00;;;;;;;;;;5076456;28;20024;-85
2022/06/03 11:51:33;;;;;;;;;;;;;;;;;;5084068;28;20073;-85
2022/06/03 11:54:00;;;;;;;6.15;3.97;;;;;;;;;;5080347;28;20015;-85
2022/06/03 11:56:28;;;;;;;4.78;4.25;;;;;;;;;;5087591;28;20027;-80
2022/06/03 11:58:54;;;;;;;6.72;4.38;;;;;;;;;;5084817;28;20012;-79
2022/06/03 12:01:29;;;;;;;7.40;4.63;;;;;;;;;;5078540;28;20074;-79
2022/06/03 12:04:14;;;;;;;4.05;3.55;;;;;;;;;;5080272;28;20020;-80
2022/06/03 12:06:43;;;;;;;5.38;3.65;;;;;;;;;;5083897;28;20103;-80
2022/06/03 12:09:15;;;;;;;6.07;5.13;;;;;;;;;;5078204;28;20040;-80
2022/06/03 12:14:45;;;;;;;7.63;5.60;;;;;;;;;;5078818;28;20088;-81
2022/06/03 12:17:11;;;;;;;9.70;5.47;;;;;;;;;;5080488;28;20528;-80
2022/06/03 12:19:51;;;;;;;6.95;6.25;;;;;;;;;;5089342;28;20020;-82
2022/06/03 12:22:19;;;;;;;8.88;6.90;;;;;;;;;;5078214;28;20048;-79
2022/06/03 12:24:47;;;;;;;6.97;5.65;;;;;;;;;;5083319;28;20028;-80
2022/06/03 12:27:22;;;;;;;7.10;5.65;;;;;;;;;;5085644;28;20027;-80
2022/06/03 12:29:55;;;;;;;7.63;6.53;;;;;;;;;;5089617;28;20167;-80
2022/06/03 12:32:26;;;;;;;9.18;6.60;;;;;;;;;;5089637;28;20795;-80
2022/06/03 12:34:52;;;;;;;6.85;5.47;;;;;;;;;;5087215;28;20056;-79
2022/06/03 12:37:26;;;;;;;8.40;5.50;;;;;;;;;;5083132;28;20009;-79
2022/06/03 12:39:55;;;;;;;9.65;5.88;;;;;;;;;;5084558;28;20512;-79
2022/06/03 12:42:28;;;;;;;7.75;6.22;;;;;;;;;;5080309;28;20023;-79
2022/06/03 12:44:57;;;;;;;6.28;5.10;;;;;;;;;;5083792;28;20029;-79
2022/06/03 12:47:26;;;;;;;8.15;6.18;;;;;;;;;;5080491;28;20020;-82
2022/06/03 12:49:53;;;;;;;9.65;5.50;;;;;;;;;;5078191;28;20020;-82
2022/06/03 12:52:20;;;;;;;6.70;5.30;;;;;;;;;;5068432;28;20204;-82
2022/06/03 12:54:46;;;;;;;10.65;6.72;;;;;;;;;;5054395;28;20482;-82
2022/06/03 12:57:21;;;;;;;8.52;5.65;;;;;;;;;;5060599;28;21765;-82
2022/06/03 12:59:52;;;;;;;9.52;7.20;;;;;;;;;;5060117;28;20112;-82
2022/06/03 13:02:21;;;;;;;8.77;7.50;;;;;;;;;;5064154;28;20032;-83
2022/06/03 13:04:53;;;;;;;5.97;5.15;;;;;;;;;;5064308;28;20082;-81
2022/06/03 13:07:28;;;;;;;10.98;7.13;;;;;;;;;;5058278;28;20115;-82
2022/06/03 13:10:03;;;;;;;8.05;6.07;;;;;;;;;;5044822;28;20064;-82
2022/06/03 13:12:32;;;;;;;9.10;5.60;;;;;;;;;;5058965;28;20059;-82
2022/06/03 13:15:21;;;;;;;7.32;6.20;;;;;;;;;;5060128;28;20024;-82
2022/06/03 13:17:55;;;;;;;9.63;6.30;;;;;;;;;;5026263;28;20106;-82
2022/06/03 13:20:39;;;;;;;9.88;7.22;;;;;;;;;;5061173;28;20017;-81
2022/06/03 13:23:26;;;;;;;6.47;5.80;;;;;;;;;;5037353;28;20504;-83
2022/06/03 13:25:54;;;;;;;10.50;6.65;;;;;;;;;;5009769;28;20040;-82
2022/06/03 13:28:30;;;;;;;11.90;8.85;;;;;;;;;;5064232;28;20388;-82
2022/06/03 13:31:08;;;;;;;10.32;8.45;;;;;;;;;;5045246;28;20423;-82
2022/06/03 13:33:54;;;;;;;12.88;9.25;;;;;;;;;;5066746;28;20032;-83
2022/06/03 13:36:40;;;;;;;13.30;9.88;;;;;;;;;;5053667;28;20430;-83
2022/06/03 13:39:08;;;;;;;12.85;9.90;;;;;;;;;;5059079;28;20036;-82
2022/06/03 13:44:42;;;;;;;13.45;11.20;;;;;;;;;;5059201;28;20117;-83
2022/06/03 13:47:28;;;;;;;13.25;10.45;;;;;;;;;;5053874;28;20024;-82
2022/06/03 13:49:54;;;;;;;16.92;11.18;;;;;;;;;;5059300;28;20016;-83
2022/06/03 13:52:32;;;;;;;15.60;10.93;;;;;;;;;;5057108;28;20033;-83
2022/06/03 13:55:04;;;;;;;13.73;9.93;;;;;;;;;;5074688;28;20037;-83
2022/06/03 13:57:35;;;;;;;12.82;10.15;;;;;;;;;;5079592;28;20101;-83
2022/06/03 14:00:19;;;;;;;11.65;7.63;;;;;;;;;;5082781;28;20119;-83
2022/06/03 14:02:47;;;;;;;16.80;8.43;;;;;;;;;;5084729;28;20484;-82
2022/06/03 14:05:15;;;;;;;8.82;6.80;;;;;;;;;;5079762;28;20481;-83
2022/06/03 14:07:53;;;;;;;10.32;7.25;;;;;;;;;;5078240;28;20036;-82
2022/06/03 14:10:23;;;;;;;11.02;7.05;;;;;;;;;;5085636;28;20017;-82
2022/06/03 14:12:52;;;;;;;10.53;8.57;;;;;;;;;;5075630;28;20095;-83
2022/06/03 14:15:25;;;;;;;10.35;7.93;;;;;;;;;;5085170;28;20270;-82
2022/06/03 14:17:58;;;;;;;11.38;8.68;;;;;;;;;;5086551;28;20086;-82
2022/06/03 14:20:42;;;;;;;11.98;6.90;;;;;;;;;;5082245;28;20114;-82
2022/06/03 14:23:09;;;;;;;7.65;6.95;;;;;;;;;;5081009;28;20037;-82
2022/06/03 14:25:42;;;;;;;10.82;9.02;;;;;;;;;;5086233;28;20062;-83
2022/06/03 14:28:08;;;;;;;10.35;8.32;;;;;;;;;;5082668;28;20066;-82
2022/06/03 14:30:45;;;;;;;11.65;10.13;;;;;;;;;;5081944;28;20016;-83
2022/06/03 14:33:12;;;;;;;12.05;9.45;;;;;;;;;;5084147;28;20028;-82
2022/06/03 14:35:40;;;;;;;17.17;12.80;;;;;;;;;;5082321;28;20028;-83
2022/06/03 14:38:11;;;;;;;20.17;13.05;;;;;;;;;;5085104;28;20020;-82
2022/06/03 14:40:39;;;;;;;15.70;11.60;;;;;;;;;;5079028;28;20020;-83
2022/06/03 14:43:07;;;;;;;21.58;13.23;;;;;;;;;;5083827;28;20484;-83
2022/06/03 14:45:40;;;;;;;20.48;13.55;;;;;;;;;;5074240;28;20766;-82
2022/06/03 14:48:08;;;;;;;20.00;14.38;;;;;;;;;;5080905;28;20107;-82
2022/06/03 14:50:42;;;;;;;23.67;14.52;;;;;;;;;;5072951;28;20323;-83
2022/06/03 14:53:35;;;;;;;23.70;16.73;;;;;;;;;;5067627;28;20139;-83
2022/06/03 14:56:04;;;;;;;30.75;17.35;;;;;;;;;;5083347;28;20039;-82
2022/06/03 14:58:42;;;;;;;20.73;14.95;;;;;;;;;;5077439;28;20009;-82
2022/06/03 15:01:08;;;;;;;23.25;15.43;;;;;;;;;;5079276;28;20077;-82
2022/06/03 15:03:48;;;;;;;23.67;15.60;;;;;;;;;;5075206;28;20115;-82
2022/06/03 15:06:34;;;;;;;24.60;16.30;;;;;;;;;;5075310;28;20408;-83
2022/06/03 15:09:13;;;;;;;25.50;15.73;;;;;;;;;;5082734;28;20028;-82
2022/06/03 15:11:43;;;;;;;29.13;18.83;;;;;;;;;;5080419;28;20027;-81
2022/06/03 15:14:10;;;;;;;27.23;18.45;;;;;;;;;;5079912;28;20040;-82
2022/06/03 15:16:48;;;;;;;31.83;19.05;;;;;;;;;;5085705;28;20384;-82
2022/06/03 15:19:15;;;;;;;35.95;19.90;;;;;;;;;;5070140;28;20131;-81
2022/06/03 15:21:41;;;;;;;35.08;21.10;;;;;;;;;;5082915;28;20016;-81
2022/06/03 15:24:08;;;;;;;31.88;20.02;;;;;;;;;;5087085;28;20024;-82
2022/06/03 15:26:40;;;;;;;31.48;20.77;;;;;;;;;;5078529;28;20423;-82
2022/06/03 15:29:12;;;;;;;28.17;19.27;;;;;;;;;;5070781;28;20099;-82
2022/06/03 15:31:38;;;;;;;31.33;20.48;;;;;;;;;;5078936;28;20027;-82
2022/06/03 15:34:06;;;;;;;29.55;21.35;;;;;;;;;;5076211;28;20038;-82
2022/06/03 15:36:51;;;;;;;30.73;21.05;;;;;;;;;;5084446;28;20140;-82
2022/06/03 15:39:24;;;;;;;30.17;20.00;;;;;;;;;;5087915;28;20426;-82
2022/06/03 15:41:52;;;;;;;29.50;19.42;;;;;;;;;;5076817;28;20475;-83
2022/06/03 15:44:29;;;;;;;25.92;19.40;;;;;;;;;;5081366;28;20048;-81